PHLI

Lihue

Airport
ICAO code
PHLI
Summary
ICAO Region
NAM
ICAO Territory
Location

Lihue,

Coordinates
21° 58' 34" N , 159° 20' 20" W
KCC
Metar
Observation
PHLI 060353Z 03011KT 10SM FEW034 FEW042 FEW049 26/19 A2995 RMK AO2 SLP140 T02560194
Station
Lihue, Lihue Airport
Date/Time
2022-10-06 03:53:00
Wind direction
30°
Wind speed
11 kts
Lowest cloud amount
few clouds
Temperature
25.6°C
Dew point
19.4°C
Humidity
68%
Weather condition
n/a

Description

Lihue Airport is a state-owned public-use airport located in the Līhuʻe on the southeast coast of the island of Kauaʻi in Kauai County, Hawaiʻi, United States, 2 nm east of the center of Līhuʻe.

Climatology

Tropical Monsoon climate (Köppen climate classification Am) - monthly mean temperatures above 18°C in every month of the year and features wet and dry seasons. A tropical monsoon climate typically features less pronounced dry seasons than a tropical savanna climate and see less variance in temperatures during the course of the year.

Runways

Designator Length Width Surface Rops
3/21 1981 46 ASP Yes/Yes
17/35 1981 46 ASP Yes/Yes

Airport map

Aerial View

SKYbrary Partners:

Safety knowledge contributed by: